createdAt,value
2023-01-30T00:00:33.996Z,23.00
2023-01-30T00:03:00.666Z,22.98
2023-01-30T00:05:27.040Z,22.10
2023-01-30T00:07:53.414Z,22.60
2023-01-30T00:10:20.165Z,22.88
2023-01-30T00:12:46.709Z,23.52
2023-01-30T00:15:13.089Z,21.83
2023-01-30T00:17:39.413Z,20.40
2023-01-30T00:20:07.285Z,22.00
2023-01-30T00:22:33.673Z,21.30
2023-01-30T00:25:00.164Z,21.60
2023-01-30T00:27:26.576Z,21.17
2023-01-30T00:30:02.451Z,21.17
2023-01-30T00:32:29.463Z,21.75
2023-01-30T00:34:55.840Z,20.70
2023-01-30T00:37:22.198Z,21.13
2023-01-30T00:39:48.535Z,22.35
2023-01-30T00:42:35.232Z,21.65
2023-01-30T00:45:20.382Z,20.95
2023-01-30T00:47:48.589Z,20.67
2023-01-30T00:50:15.391Z,21.45
2023-01-30T00:52:41.737Z,20.45
2023-01-30T00:55:08.374Z,22.58
2023-01-30T00:57:34.686Z,19.90
2023-01-30T01:00:01.143Z,21.65
2023-01-30T01:02:27.464Z,21.27
2023-01-30T01:04:53.774Z,22.30
2023-01-30T01:07:21.293Z,20.63
2023-01-30T01:09:47.761Z,21.35
2023-01-30T01:12:14.143Z,22.42
2023-01-30T01:14:40.506Z,23.33
2023-01-30T01:17:07.118Z,23.50
2023-01-30T01:19:35.269Z,22.85
2023-01-30T01:22:01.609Z,21.83
2023-01-30T01:24:27.921Z,22.48
2023-01-30T01:26:54.235Z,20.70
2023-01-30T01:29:20.686Z,21.83
2023-01-30T01:31:47.040Z,22.73
2023-01-30T01:34:13.454Z,21.10
2023-01-30T01:36:53.251Z,21.88
2023-01-30T01:39:20.532Z,22.42
2023-01-30T01:41:46.929Z,22.00
2023-01-30T01:44:14.293Z,22.08
2023-01-30T01:46:45.978Z,23.15
2023-01-30T01:49:19.600Z,22.20
2023-01-30T01:51:50.696Z,21.98
2023-01-30T01:54:20.823Z,21.83
2023-01-30T01:56:48.095Z,22.05
2023-01-30T01:59:22.688Z,21.52
2023-01-30T02:01:49.852Z,22.35
2023-01-30T02:04:36.319Z,22.05
2023-01-30T02:07:02.820Z,22.30
2023-01-30T02:09:29.155Z,21.73
2023-01-30T02:11:57.879Z,21.63
2023-01-30T02:14:24.683Z,21.15
2023-01-30T02:16:51.039Z,21.30
2023-01-30T02:19:37.087Z,21.25
2023-01-30T02:22:24.444Z,21.05
2023-01-30T02:25:11.963Z,21.30
2023-01-30T02:27:59.971Z,20.58
2023-01-30T02:30:54.161Z,22.30
2023-01-30T02:33:32.917Z,19.50
2023-01-30T02:36:08.277Z,20.05
2023-01-30T02:38:43.933Z,21.92
2023-01-30T02:41:13.090Z,19.65
2023-01-30T02:43:41.547Z,20.95
2023-01-30T02:46:10.529Z,19.80
2023-01-30T02:48:43.893Z,20.95
2023-01-30T02:51:16.624Z,21.25
2023-01-30T02:53:43.292Z,20.40
2023-01-30T02:56:09.662Z,21.40
2023-01-30T02:58:42.679Z,21.13
2023-01-30T03:01:28.525Z,19.65
2023-01-30T03:04:27.325Z,21.13
2023-01-30T03:07:16.990Z,21.80
2023-01-30T03:10:02.816Z,20.73
2023-01-30T03:12:41.034Z,20.27
2023-01-30T03:15:14.376Z,20.77
2023-01-30T03:17:42.495Z,20.92
2023-01-30T03:20:10.317Z,21.25
2023-01-30T03:22:36.725Z,20.70
2023-01-30T03:25:03.277Z,19.77
2023-01-30T03:27:30.277Z,22.55
2023-01-30T03:29:56.652Z,20.45
2023-01-30T03:32:23.007Z,20.60
2023-01-30T03:34:49.373Z,23.02
2023-01-30T03:37:15.773Z,20.75
2023-01-30T03:39:42.156Z,20.98
2023-01-30T03:42:08.593Z,20.52
2023-01-30T03:44:34.972Z,21.08
2023-01-30T03:47:01.335Z,21.23
2023-01-30T03:49:27.773Z,20.35
2023-01-30T03:51:54.147Z,20.27
2023-01-30T03:54:20.513Z,19.30
2023-01-30T03:56:46.890Z,20.50
2023-01-30T03:59:13.316Z,22.65
2023-01-30T04:01:39.715Z,20.67
2023-01-30T04:04:06.133Z,21.23
2023-01-30T04:06:32.606Z,21.15
2023-01-30T04:08:58.985Z,20.05
2023-01-30T04:11:25.354Z,19.92
2023-01-30T04:13:51.872Z,21.42
2023-01-30T04:16:23.764Z,21.38
2023-01-30T04:18:50.223Z,21.60
2023-01-30T04:21:16.840Z,22.15
2023-01-30T04:23:43.509Z,22.70
2023-01-30T04:26:10.331Z,20.98
2023-01-30T04:28:36.870Z,21.90
2023-01-30T04:31:03.956Z,21.65
2023-01-30T04:33:30.372Z,24.33
2023-01-30T04:35:58.681Z,23.17
2023-01-30T04:38:26.299Z,22.05
2023-01-30T04:40:54.155Z,22.90
2023-01-30T04:43:24.602Z,22.30
2023-01-30T04:45:51.693Z,23.40
2023-01-30T04:48:19.733Z,22.60
2023-01-30T04:50:48.822Z,23.25
2023-01-30T04:53:16.276Z,23.33
2023-01-30T04:55:42.619Z,22.85
2023-01-30T04:58:08.990Z,23.45
2023-01-30T05:00:35.402Z,23.67
2023-01-30T05:03:02.010Z,23.02
2023-01-30T05:05:28.473Z,24.45
2023-01-30T05:07:55.101Z,24.98
2023-01-30T05:10:21.631Z,23.77
2023-01-30T05:12:47.990Z,24.33
2023-01-30T05:15:14.467Z,23.42
2023-01-30T05:17:43.045Z,24.05
2023-01-30T05:20:10.757Z,23.63
2023-01-30T05:22:37.140Z,22.45
2023-01-30T05:25:03.738Z,22.85
2023-01-30T05:27:30.108Z,23.75
2023-01-30T05:29:56.444Z,23.17
2023-01-30T05:32:22.772Z,22.58
2023-01-30T05:34:49.693Z,23.27
2023-01-30T05:37:16.066Z,23.30
2023-01-30T05:39:42.434Z,23.95
2023-01-30T05:42:08.795Z,20.90
2023-01-30T05:44:35.165Z,21.85
2023-01-30T05:47:01.584Z,22.45
2023-01-30T05:49:27.969Z,21.40
2023-01-30T05:51:54.346Z,20.50
2023-01-30T05:54:20.709Z,21.52
2023-01-30T05:56:50.471Z,22.52
2023-01-30T05:59:18.520Z,20.92
2023-01-30T06:01:44.917Z,21.25
2023-01-30T06:04:11.387Z,21.50
2023-01-30T06:06:37.964Z,21.05
2023-01-30T06:09:04.667Z,19.70
2023-01-30T06:11:31.047Z,20.25
2023-01-30T06:13:57.441Z,19.75
2023-01-30T06:16:23.930Z,20.85
2023-01-30T06:18:50.287Z,19.40
2023-01-30T06:21:16.805Z,19.52
2023-01-30T06:23:43.603Z,21.10
2023-01-30T06:26:10.186Z,18.90
2023-01-30T06:28:36.817Z,18.92
2023-01-30T06:31:06.160Z,20.83
2023-01-30T06:33:32.885Z,19.75
2023-01-30T06:35:59.265Z,23.60
2023-01-30T06:38:26.241Z,20.60
2023-01-30T06:40:52.679Z,19.55
2023-01-30T06:43:19.086Z,18.80
2023-01-30T06:45:45.466Z,18.88
2023-01-30T06:48:11.867Z,18.05
2023-01-30T06:50:38.236Z,18.55
2023-01-30T06:53:06.454Z,17.83
2023-01-30T06:55:36.775Z,18.52
2023-01-30T06:58:05.226Z,17.67
2023-01-30T07:00:31.877Z,18.35
2023-01-30T07:02:58.831Z,17.85
2023-01-30T07:05:25.280Z,16.08
2023-01-30T07:07:51.790Z,16.90
2023-01-30T07:10:18.247Z,15.30
2023-01-30T07:12:45.975Z,16.38
2023-01-30T07:18:59.464Z,16.13
2023-01-30T07:21:27.140Z,15.27
2023-01-30T07:23:53.699Z,16.27
2023-01-30T07:26:20.139Z,15.27
2023-01-30T07:28:46.494Z,15.15
2023-01-30T07:31:12.922Z,14.70
2023-01-30T07:33:39.297Z,14.68
2023-01-30T07:36:05.841Z,15.60
2023-01-30T07:38:32.166Z,15.68
2023-01-30T07:40:58.701Z,15.50
2023-01-30T07:43:25.054Z,16.50
2023-01-30T07:45:51.453Z,16.23
2023-01-30T07:48:19.207Z,15.10
2023-01-30T07:50:46.254Z,16.15
2023-01-30T07:53:15.324Z,15.48
2023-01-30T07:55:42.373Z,16.23
2023-01-30T07:58:13.362Z,15.32
2023-01-30T08:00:39.774Z,16.55
2023-01-30T08:03:06.133Z,17.30
2023-01-30T08:05:32.550Z,15.82
2023-01-30T08:08:00.720Z,16.08
2023-01-30T08:10:27.178Z,16.40
2023-01-30T08:12:53.769Z,16.10
2023-01-30T08:15:21.933Z,18.00
2023-01-30T08:17:56.130Z,16.77
2023-01-30T08:20:22.633Z,16.83
2023-01-30T08:22:48.965Z,16.60
2023-01-30T08:25:15.396Z,16.50
2023-01-30T08:27:41.731Z,16.45
2023-01-30T08:30:09.359Z,16.15
2023-01-30T08:32:35.765Z,17.00
2023-01-30T08:35:02.144Z,17.15
2023-01-30T08:37:28.716Z,15.10
2023-01-30T08:39:55.071Z,14.55
2023-01-30T08:42:21.445Z,14.23
2023-01-30T08:44:47.826Z,14.27
2023-01-30T08:47:14.195Z,12.85
2023-01-30T08:49:40.589Z,12.15
2023-01-30T08:52:06.979Z,12.35
2023-01-30T08:54:33.446Z,11.30
2023-01-30T08:56:59.837Z,12.05
2023-01-30T08:59:26.204Z,10.05
2023-01-30T09:01:52.574Z,10.82
2023-01-30T09:04:19.001Z,9.70
2023-01-30T09:06:45.404Z,10.57
2023-01-30T09:09:11.751Z,11.00
2023-01-30T09:11:38.188Z,9.52
2023-01-30T09:14:04.579Z,9.07
2023-01-30T09:16:30.947Z,8.55
2023-01-30T09:18:57.303Z,8.57
2023-01-30T09:21:24.422Z,7.97
2023-01-30T09:23:50.783Z,8.15
2023-01-30T09:26:17.282Z,8.10
2023-01-30T09:28:43.667Z,7.60
2023-01-30T09:31:10.197Z,7.10
2023-01-30T09:33:36.634Z,8.02
2023-01-30T09:36:03.133Z,6.60
2023-01-30T09:38:29.529Z,7.03
2023-01-30T09:41:22.440Z,5.70
2023-01-30T09:44:32.796Z,5.63
2023-01-30T09:47:12.016Z,6.25
2023-01-30T09:49:53.161Z,5.65
2023-01-30T09:52:34.498Z,5.68
2023-01-30T09:55:21.867Z,5.85
2023-01-30T09:57:49.260Z,5.95
2023-01-30T10:00:22.432Z,5.80
2023-01-30T10:02:57.881Z,5.75
2023-01-30T10:05:33.628Z,5.15
2023-01-30T10:08:21.434Z,4.70
2023-01-30T10:11:00.887Z,4.90
2023-01-30T10:13:48.506Z,4.68
2023-01-30T10:16:23.688Z,4.07
2023-01-30T10:18:59.326Z,4.35
2023-01-30T10:22:10.077Z,5.00
2023-01-30T10:24:51.323Z,4.22
2023-01-30T10:27:18.080Z,4.60
2023-01-30T10:29:57.106Z,4.43
2023-01-30T10:32:31.692Z,4.35
2023-01-30T10:35:07.108Z,4.15
2023-01-30T10:37:40.906Z,3.78
2023-01-30T10:40:20.653Z,4.25
2023-01-30T10:43:29.908Z,3.72
2023-01-30T10:46:34.391Z,3.85
2023-01-30T10:49:09.128Z,3.17
2023-01-30T10:51:46.831Z,3.95
2023-01-30T10:54:19.743Z,3.75
2023-01-30T10:56:49.427Z,3.78
2023-01-30T10:59:30.581Z,5.03
2023-01-30T11:02:24.242Z,3.28
2023-01-30T11:04:59.246Z,3.50
2023-01-30T11:07:28.157Z,3.17
2023-01-30T11:09:54.637Z,3.42
2023-01-30T11:12:20.961Z,2.92
2023-01-30T11:14:59.970Z,4.15
2023-01-30T11:17:45.343Z,3.10
2023-01-30T11:20:16.598Z,2.95
2023-01-30T11:22:52.295Z,2.85
2023-01-30T11:25:22.008Z,2.42
2023-01-30T11:28:03.222Z,2.47
2023-01-30T11:30:33.770Z,2.47
2023-01-30T11:33:36.749Z,2.30
2023-01-30T11:36:09.646Z,2.13
2023-01-30T11:38:40.044Z,2.38
2023-01-30T11:41:09.076Z,2.45
2023-01-30T11:43:39.423Z,2.58
2023-01-30T11:46:07.805Z,2.42
2023-01-30T11:49:03.327Z,2.55
2023-01-30T11:51:23.857Z,2.25
2023-01-30T11:54:00.393Z,2.20
2023-01-30T11:56:30.812Z,2.05
2023-01-30T11:58:59.377Z,1.75
2023-01-30T12:01:28.261Z,1.70
2023-01-30T12:03:55.169Z,2.17
2023-01-30T12:06:30.009Z,1.95
2023-01-30T12:08:57.423Z,2.05
2023-01-30T12:11:29.395Z,1.73
2023-01-30T12:14:04.663Z,2.53
2023-01-30T12:16:51.253Z,1.80
2023-01-30T12:19:34.038Z,1.70
2023-01-30T12:22:09.347Z,1.98
2023-01-30T12:24:42.361Z,1.85
2023-01-30T12:27:15.574Z,2.03
2023-01-30T12:30:03.076Z,1.90
2023-01-30T12:32:33.517Z,1.60
2023-01-30T12:35:01.272Z,1.80
2023-01-30T12:37:34.156Z,2.47
2023-01-30T12:40:14.074Z,2.03
2023-01-30T12:43:00.571Z,1.80
2023-01-30T12:45:30.509Z,2.05
2023-01-30T12:48:26.004Z,1.95
2023-01-30T12:50:55.872Z,2.67
2023-01-30T12:53:31.058Z,1.98
2023-01-30T12:56:35.142Z,2.40
2023-01-30T12:59:09.960Z,2.23
2023-01-30T13:02:18.162Z,1.75
2023-01-30T13:05:04.590Z,1.73
2023-01-30T13:07:46.569Z,1.65
2023-01-30T13:10:23.748Z,3.30
2023-01-30T13:13:21.549Z,2.20
2023-01-30T13:15:58.333Z,2.10
2023-01-30T13:18:42.613Z,2.00
2023-01-30T13:24:30.037Z,1.33
2023-01-30T13:26:58.650Z,2.08
2023-01-30T13:29:31.526Z,2.03
2023-01-30T13:32:01.264Z,2.13
2023-01-30T13:34:34.122Z,2.25
2023-01-30T13:37:19.778Z,1.88
2023-01-30T13:40:09.275Z,1.98
2023-01-30T13:42:45.538Z,2.25
2023-01-30T13:45:30.083Z,2.10
2023-01-30T13:47:56.634Z,1.90
2023-01-30T13:50:44.740Z,2.22
2023-01-30T13:53:11.142Z,2.63
2023-01-30T13:55:45.860Z,2.45
2023-01-30T13:58:27.430Z,2.45
2023-01-30T14:00:55.367Z,2.10
2023-01-30T14:03:35.167Z,2.22
2023-01-30T14:06:04.404Z,2.35
2023-01-30T14:08:38.236Z,2.30
2023-01-30T14:11:04.758Z,2.78
2023-01-30T14:13:32.350Z,2.40
2023-01-30T14:16:01.684Z,2.22
2023-01-30T14:18:31.724Z,2.20
2023-01-30T14:21:16.633Z,2.50
2023-01-30T14:23:55.261Z,2.20
2023-01-30T14:26:52.422Z,3.33
2023-01-30T14:29:37.564Z,2.90
2023-01-30T14:32:13.486Z,2.20
2023-01-30T14:35:08.301Z,2.20
2023-01-30T14:40:21.775Z,2.45
2023-01-30T14:43:13.131Z,2.22
2023-01-30T14:45:48.424Z,3.50
2023-01-30T14:48:23.958Z,2.58
2023-01-30T14:50:50.464Z,2.67
2023-01-30T14:53:16.930Z,2.40
2023-01-30T14:55:43.326Z,3.42
2023-01-30T14:58:15.411Z,3.00
2023-01-30T15:00:41.824Z,2.78
2023-01-30T15:03:16.935Z,2.72
2023-01-30T15:05:44.645Z,2.83
2023-01-30T15:08:21.079Z,2.28
2023-01-30T15:10:50.333Z,2.95
2023-01-30T15:13:41.064Z,2.70
2023-01-30T15:16:19.786Z,2.85
2023-01-30T15:19:14.508Z,2.53
2023-01-30T15:24:21.555Z,2.20
2023-01-30T15:27:05.327Z,2.67
2023-01-30T15:29:41.420Z,2.45
2023-01-30T15:32:19.875Z,2.38
2023-01-30T15:34:56.671Z,2.58
2023-01-30T15:37:47.412Z,2.92
2023-01-30T15:40:18.025Z,2.90
2023-01-30T15:43:01.087Z,2.88
2023-01-30T15:45:56.597Z,2.72
2023-01-30T15:48:33.080Z,3.00
2023-01-30T15:51:00.330Z,3.20
2023-01-30T15:53:35.439Z,3.78
2023-01-30T15:56:04.017Z,3.40
2023-01-30T15:58:31.056Z,3.63
2023-01-30T16:00:59.564Z,2.70
2023-01-30T16:03:31.774Z,2.92
2023-01-30T16:05:58.470Z,3.38
2023-01-30T16:08:32.772Z,3.33
2023-01-30T16:11:00.652Z,2.72
2023-01-30T16:13:27.823Z,6.15
2023-01-30T16:16:02.751Z,9.27
2023-01-30T16:18:33.467Z,4.10
2023-01-30T16:21:03.395Z,4.30
2023-01-30T16:23:32.030Z,3.30
2023-01-30T16:25:59.013Z,3.50
2023-01-30T16:28:27.272Z,4.97
2023-01-30T16:30:58.269Z,4.32
2023-01-30T16:33:24.805Z,3.42
2023-01-30T16:35:51.129Z,3.97
2023-01-30T16:38:36.084Z,3.67
2023-01-30T16:41:03.438Z,4.18
2023-01-30T16:43:32.040Z,5.38
2023-01-30T16:46:46.636Z,2.97
2023-01-30T16:49:35.408Z,5.72
2023-01-30T16:52:21.619Z,4.13
2023-01-30T16:54:51.452Z,7.25
2023-01-30T16:57:27.177Z,6.90
2023-01-30T16:59:53.598Z,6.72
2023-01-30T17:02:25.801Z,5.63
2023-01-30T17:04:52.147Z,4.57
2023-01-30T17:07:34.458Z,6.00
2023-01-30T17:10:00.861Z,4.45
2023-01-30T17:12:27.209Z,3.63
2023-01-30T17:15:14.682Z,4.60
2023-01-30T17:17:41.296Z,4.03
2023-01-30T17:20:08.905Z,4.13
2023-01-30T17:22:35.557Z,4.53
2023-01-30T17:25:05.068Z,3.78
2023-01-30T17:27:31.567Z,3.90
2023-01-30T17:29:58.035Z,5.13
2023-01-30T17:32:24.508Z,4.40
2023-01-30T17:34:50.847Z,5.38
2023-01-30T17:37:22.962Z,3.83
2023-01-30T17:39:49.418Z,4.55
2023-01-30T17:42:18.521Z,3.25
2023-01-30T17:44:44.884Z,4.60
2023-01-30T17:47:11.734Z,4.43
2023-01-30T17:49:38.627Z,3.88
2023-01-30T17:52:05.287Z,4.32
2023-01-30T17:54:31.765Z,4.35
2023-01-30T17:57:03.552Z,4.15
2023-01-30T17:59:31.249Z,3.13
2023-01-30T18:01:57.912Z,3.95
2023-01-30T18:04:24.340Z,3.83
2023-01-30T18:06:53.352Z,4.82
2023-01-30T18:09:24.233Z,3.35
2023-01-30T18:11:50.821Z,4.07
2023-01-30T18:14:17.634Z,3.80
2023-01-30T18:16:44.246Z,3.40
2023-01-30T18:19:15.983Z,3.33
2023-01-30T18:21:45.413Z,4.18
2023-01-30T18:24:14.609Z,3.92
2023-01-30T18:26:41.755Z,4.32
2023-01-30T18:29:11.976Z,3.58
2023-01-30T18:31:39.090Z,3.42
2023-01-30T18:34:07.079Z,3.95
2023-01-30T18:36:35.031Z,3.75
2023-01-30T18:39:01.484Z,4.80
2023-01-30T18:41:28.617Z,4.13
2023-01-30T18:43:59.752Z,4.00
2023-01-30T18:46:27.023Z,3.78
2023-01-30T18:48:56.058Z,3.72
2023-01-30T18:51:25.368Z,3.90
2023-01-30T18:53:52.901Z,3.80
2023-01-30T18:56:31.293Z,3.72
2023-01-30T18:59:02.280Z,3.95
2023-01-30T19:01:30.208Z,3.35
2023-01-30T19:03:58.362Z,3.92
2023-01-30T19:06:25.727Z,4.90
2023-01-30T19:08:52.106Z,3.85
2023-01-30T19:11:39.316Z,3.97
2023-01-30T19:14:06.410Z,3.83
2023-01-30T19:16:34.408Z,3.78
2023-01-30T19:19:01.047Z,3.70
2023-01-30T19:21:27.899Z,4.07
2023-01-30T19:23:54.747Z,4.10
2023-01-30T19:26:22.479Z,4.03
2023-01-30T19:28:49.244Z,4.18
2023-01-30T19:31:17.845Z,3.97
2023-01-30T19:33:45.210Z,3.83
2023-01-30T19:36:19.660Z,4.45
2023-01-30T19:38:47.503Z,4.38
2023-01-30T19:41:25.063Z,4.03
2023-01-30T19:43:52.984Z,4.07
2023-01-30T19:46:19.838Z,4.03
2023-01-30T19:48:46.958Z,3.83
2023-01-30T19:51:20.299Z,4.03
2023-01-30T19:53:50.515Z,3.97
2023-01-30T19:56:18.576Z,4.13
2023-01-30T19:58:44.961Z,4.55
2023-01-30T20:01:14.460Z,3.95
2023-01-30T20:03:41.784Z,4.28
2023-01-30T20:06:10.989Z,4.25
2023-01-30T20:08:38.603Z,5.10
2023-01-30T20:11:07.121Z,4.55
2023-01-30T20:13:37.118Z,5.03
2023-01-30T20:16:06.496Z,3.80
2023-01-30T20:18:35.340Z,3.88
2023-01-30T20:21:12.972Z,4.10
2023-01-30T20:23:41.673Z,3.70
2023-01-30T20:26:19.051Z,4.07
2023-01-30T20:28:45.592Z,4.60
2023-01-30T20:31:14.434Z,3.28
2023-01-30T20:33:41.365Z,4.20
2023-01-30T20:36:10.656Z,4.28
2023-01-30T20:38:39.249Z,4.10
2023-01-30T20:41:16.684Z,3.83
2023-01-30T20:43:44.970Z,3.75
2023-01-30T20:46:16.758Z,4.32
2023-01-30T20:48:43.535Z,3.63
2023-01-30T20:51:12.361Z,4.80
2023-01-30T20:53:39.654Z,4.45
2023-01-30T20:56:06.837Z,4.45
2023-01-30T20:58:33.243Z,4.30
2023-01-30T21:01:10.570Z,4.38
2023-01-30T21:03:38.271Z,4.20
2023-01-30T21:06:05.352Z,4.10
2023-01-30T21:08:31.732Z,3.97
2023-01-30T21:11:13.178Z,3.88
2023-01-30T21:13:39.945Z,4.55
2023-01-30T21:16:23.783Z,3.92
2023-01-30T21:18:53.463Z,4.20
2023-01-30T21:21:33.055Z,3.90
2023-01-30T21:24:03.197Z,3.80
2023-01-30T21:26:32.160Z,3.45
2023-01-30T21:29:00.504Z,4.75
2023-01-30T21:31:29.086Z,3.78
2023-01-30T21:33:56.936Z,4.18
2023-01-30T21:36:23.540Z,4.03
2023-01-30T21:39:08.099Z,3.60
2023-01-30T21:41:55.686Z,3.72
2023-01-30T21:44:30.231Z,4.10
2023-01-30T21:46:56.921Z,3.47
2023-01-30T21:49:25.163Z,3.88
2023-01-30T21:51:52.015Z,3.70
2023-01-30T21:54:19.219Z,4.28
2023-01-30T21:56:45.923Z,3.90
2023-01-30T21:59:12.775Z,4.25
2023-01-30T22:01:40.091Z,3.85
2023-01-30T22:04:08.938Z,3.67
2023-01-30T22:06:37.624Z,4.00
2023-01-30T22:09:05.480Z,4.47
2023-01-30T22:11:31.894Z,4.35
2023-01-30T22:13:58.277Z,4.15
2023-01-30T22:16:26.868Z,3.08
2023-01-30T22:18:55.865Z,3.45
2023-01-30T22:21:24.003Z,2.80
2023-01-30T22:23:51.600Z,3.08
2023-01-30T22:26:19.412Z,3.65
2023-01-30T22:28:46.142Z,4.00
2023-01-30T22:31:14.719Z,3.40
2023-01-30T22:33:45.597Z,3.78
2023-01-30T22:36:12.612Z,3.50
2023-01-30T22:38:42.811Z,3.70
2023-01-30T22:41:15.540Z,3.15
2023-01-30T22:43:50.484Z,2.95
2023-01-30T22:46:18.101Z,3.58
2023-01-30T22:48:45.169Z,3.10
2023-01-30T22:51:16.778Z,3.72
2023-01-30T22:53:48.806Z,4.22
2023-01-30T22:56:17.476Z,3.60
2023-01-30T22:58:44.878Z,3.50
2023-01-30T23:01:17.813Z,3.42
2023-01-30T23:03:44.964Z,4.07
2023-01-30T23:06:13.997Z,3.45
2023-01-30T23:08:43.825Z,4.22
2023-01-30T23:11:33.012Z,3.25
2023-01-30T23:14:11.891Z,3.42
2023-01-30T23:16:39.913Z,3.58
2023-01-30T23:19:07.764Z,2.97
2023-01-30T23:21:42.351Z,3.15
2023-01-30T23:24:13.764Z,3.00
2023-01-30T23:26:43.947Z,3.78
2023-01-30T23:29:15.491Z,3.30
2023-01-30T23:31:42.984Z,3.33
2023-01-30T23:34:14.525Z,3.28
2023-01-30T23:36:41.032Z,3.63
2023-01-30T23:39:07.633Z,4.47
2023-01-30T23:41:35.396Z,2.85
2023-01-30T23:44:01.996Z,3.42
2023-01-30T23:46:31.378Z,3.25
2023-01-30T23:49:00.675Z,3.50
2023-01-30T23:51:29.726Z,3.50
2023-01-30T23:53:56.512Z,3.50
2023-01-30T23:56:24.289Z,3.30
2023-01-30T23:58:51.039Z,4.15
